Time;durP1;ratioP1;P1;durP2;ratioP2;P2;SDS_P1;SDS_P2;PMS_P1;PMS_P2;Temp;Humidity;BMP_temperature;BMP_pressure;BME280_temperature;BME280_humidity;BME280_pressure;Samples;Min_cycle;Max_cycle;Signal;HPM_P1;HPM_P2
2020/12/10 00:01:56;;;;;;;31.00;3.97;;;;;;;10.32;100.00;99574.16;5093291;28;20039;-65
2020/12/10 00:04:21;;;;;;;33.53;4.53;;;;;;;10.32;100.00;99568.72;5093358;28;20148;-65
2020/12/10 00:06:47;;;;;;;29.30;5.00;;;;;;;10.30;100.00;99577.19;5093019;28;20047;-67
2020/12/10 00:09:12;;;;;;;24.92;4.50;;;;;;;10.29;100.00;99570.09;5092638;28;20127;-67
2020/12/10 00:11:38;;;;;;;26.27;3.80;;;;;;;10.30;100.00;99574.44;5091017;28;20366;-66
2020/12/10 00:14:05;;;;;;;24.70;3.53;;;;;;;10.31;100.00;99578.00;5092967;28;20035;-66
2020/12/10 00:16:31;;;;;;;35.75;4.20;;;;;;;10.31;100.00;99573.34;5092955;28;20024;-64
2020/12/10 00:18:57;;;;;;;36.78;4.30;;;;;;;10.30;100.00;99577.19;5092988;28;20485;-66
2020/12/10 00:21:23;;;;;;;21.42;2.90;;;;;;;10.29;100.00;99581.00;5092948;28;20036;-67
2020/12/10 00:23:49;;;;;;;27.23;3.92;;;;;;;10.27;100.00;99581.28;5092822;28;20047;-67
2020/12/10 00:26:16;;;;;;;29.45;3.25;;;;;;;10.27;100.00;99578.53;5092709;28;20039;-64
2020/12/10 00:28:42;;;;;;;30.60;4.30;;;;;;;10.26;100.00;99576.09;5092635;28;20032;-66
2020/12/10 00:31:08;;;;;;;37.75;4.97;;;;;;;10.25;100.00;99575.25;5092616;28;20047;-66
2020/12/10 00:33:33;;;;;;;30.92;3.90;;;;;;;10.23;100.00;99571.16;5092539;28;20067;-66
2020/12/10 00:35:59;;;;;;;31.90;5.00;;;;;;;10.21;100.00;99573.31;5092553;28;20060;-67
2020/12/10 00:38:25;;;;;;;41.30;5.05;;;;;;;10.22;100.00;99574.97;5092554;28;20032;-67
2020/12/10 00:40:50;;;;;;;28.25;4.22;;;;;;;10.19;100.00;99578.22;5092500;28;20036;-66
2020/12/10 00:43:16;;;;;;;37.55;4.55;;;;;;;10.19;100.00;99578.22;5092408;28;20040;-65
2020/12/10 00:45:42;;;;;;;27.63;4.00;;;;;;;10.19;100.00;99578.22;5092476;28;20044;-67
2020/12/10 00:48:07;;;;;;;23.73;3.28;;;;;;;10.16;100.00;99581.47;5092136;28;20039;-65
2020/12/10 00:50:33;;;;;;;25.45;3.22;;;;;;;10.15;100.00;99574.38;5092254;28;20047;-65
2020/12/10 00:52:58;;;;;;;24.83;3.30;;;;;;;10.14;100.00;99579.03;5092310;28;20039;-66
2020/12/10 00:55:24;;;;;;;25.38;3.17;;;;;;;10.12;100.00;99581.22;5092326;28;20055;-67
2020/12/10 00:57:49;;;;;;;23.25;3.42;;;;;;;10.10;100.00;99577.94;5092271;28;20382;-66
2020/12/10 01:00:17;;;;;;;26.67;4.50;;;;;;;10.10;100.00;99571.66;5092147;28;20042;-66
2020/12/10 01:02:42;;;;;;;22.13;3.47;;;;;;;10.07;100.00;99575.75;5092000;28;20036;-66
2020/12/10 01:05:08;;;;;;;25.75;2.85;;;;;;;10.05;100.00;99575.19;5092076;28;20046;-65
2020/12/10 01:07:34;;;;;;;21.55;3.80;;;;;;;10.04;100.00;99567.25;5091893;28;20040;-66
2020/12/10 01:10:00;;;;;;;22.05;3.45;;;;;;;10.04;100.00;99567.25;5091968;28;20501;-66
2020/12/10 01:12:26;;;;;;;30.08;3.22;;;;;;;10.02;100.00;99574.91;5091990;28;20054;-65
2020/12/10 01:14:52;;;;;;;19.77;2.53;;;;;;;10.01;100.00;99573.25;5091922;28;20127;-66
2020/12/10 01:17:18;;;;;;;24.20;3.90;;;;;;;10.00;100.00;99575.19;5090483;28;20079;-66
2020/12/10 01:19:43;;;;;;;19.65;2.67;;;;;;;10.00;100.00;99577.09;5091773;28;20044;-67
2020/12/10 01:22:09;;;;;;;28.60;3.20;;;;;;;9.96;100.00;99574.09;5091480;28;20063;-65
2020/12/10 01:24:34;;;;;;;25.73;4.80;;;;;;;9.94;100.00;99579.81;5091800;28;20040;-66
2020/12/10 01:27:00;;;;;;;18.80;3.35;;;;;;;9.90;100.00;99578.72;5091632;28;20080;-64
2020/12/10 01:29:26;;;;;;;24.45;4.38;;;;;;;9.87;100.00;99573.78;5091786;28;20474;-67
2020/12/10 01:31:52;;;;;;;22.73;3.50;;;;;;;9.85;100.00;99573.22;5091645;28;20481;-65
2020/12/10 01:34:18;;;;;;;23.02;3.83;;;;;;;9.85;100.00;99580.59;5091486;28;20118;-67
2020/12/10 01:36:44;;;;;;;21.48;2.80;;;;;;;9.83;100.00;99583.59;5091556;28;20534;-64
2020/12/10 01:39:10;;;;;;;21.67;2.45;;;;;;;9.81;100.00;99590.41;5091463;28;20131;-66
2020/12/10 01:41:36;;;;;;;17.13;2.90;;;;;;;9.80;100.00;99581.41;5091434;28;20035;-66
2020/12/10 01:44:07;;;;;;;15.88;3.50;;;;;;;9.79;100.00;99587.94;5091431;28;20444;-67
2020/12/10 01:46:33;;;;;;;20.48;2.70;;;;;;;9.78;100.00;99586.31;5091319;28;20114;-67
2020/12/10 01:49:01;;;;;;;11.77;2.28;;;;;;;9.77;100.00;99594.75;5089905;28;20428;-66
2020/12/10 01:51:26;;;;;;;19.75;2.53;;;;;;;9.76;100.00;99599.38;5091253;28;20416;-65
2020/12/10 01:53:52;;;;;;;12.00;2.03;;;;;;;9.76;100.00;99599.38;5091172;28;20047;-67
2020/12/10 01:56:18;;;;;;;18.00;2.70;;;;;;;9.76;100.00;99599.38;5091601;28;20123;-65
2020/12/10 01:58:44;;;;;;;18.65;2.92;;;;;;;9.75;100.00;99597.75;5089760;28;20051;-66
2020/12/10 02:01:11;;;;;;;16.58;2.42;;;;;;;9.73;100.00;99605.38;5091328;28;20456;-65
2020/12/10 02:03:37;;;;;;;19.15;2.50;;;;;;;9.72;100.00;99598.28;5091261;28;20036;-65
2020/12/10 02:06:03;;;;;;;17.65;2.53;;;;;;;9.72;100.00;99603.75;5091014;28;20516;-66
2020/12/10 02:08:28;;;;;;;18.20;3.03;;;;;;;9.71;100.00;99601.25;5091013;28;20032;-64
2020/12/10 02:10:54;;;;;;;20.42;3.47;;;;;;;9.71;100.00;99602.06;5091117;28;20048;-65
2020/12/10 02:13:19;;;;;;;13.63;2.42;;;;;;;9.71;100.00;99599.34;5089808;28;20167;-65
2020/12/10 02:15:49;;;;;;;22.98;2.92;;;;;;;9.71;100.00;99599.34;5091222;28;20036;-65
2020/12/10 02:18:16;;;;;;;23.38;4.63;;;;;;;9.71;100.00;99596.63;5091081;28;20449;-66
2020/12/10 02:20:41;;;;;;;27.90;3.08;;;;;;;9.73;100.00;99594.47;5091183;28;20470;-67
2020/12/10 02:23:09;;;;;;;25.92;3.50;;;;;;;9.73;100.00;99599.94;5090933;28;20547;-65
2020/12/10 02:25:36;;;;;;;24.08;3.10;;;;;;;9.73;100.00;99589.03;5091059;28;20066;-67
2020/12/10 02:28:11;;;;;;;25.50;3.60;;;;;;;9.73;100.00;99591.75;5090860;28;20482;-65
2020/12/10 02:30:38;;;;;;;33.15;4.22;;;;;;;9.72;100.00;99590.09;5091049;28;20039;-67
2020/12/10 02:33:06;;;;;;;20.23;3.05;;;;;;;9.72;100.00;99584.66;5091547;28;20027;-65
2020/12/10 02:35:32;;;;;;;21.30;3.40;;;;;;;9.75;100.00;99586.03;5094915;28;20502;-67
2020/12/10 02:38:00;;;;;;;20.52;2.83;;;;;;;9.75;100.00;99592.28;5094907;28;20032;-66
2020/12/10 02:40:29;;;;;;;24.42;2.63;;;;;;;9.77;100.00;99578.41;5094928;28;20076;-65
2020/12/10 02:42:58;;;;;;;24.48;2.83;;;;;;;9.77;100.00;99595.56;5094820;28;20043;-64
2020/12/10 02:45:24;;;;;;;11.18;2.40;;;;;;;9.78;100.00;99589.03;5094843;28;20028;-66
2020/12/10 02:47:50;;;;;;;20.27;2.30;;;;;;;9.78;100.00;99585.47;5094512;28;20040;-65
2020/12/10 02:50:16;;;;;;;22.00;2.58;;;;;;;9.79;100.00;99590.66;5094759;28;20114;-65
2020/12/10 02:52:43;;;;;;;19.65;2.58;;;;;;;9.79;100.00;99584.41;5094649;28;20038;-66
2020/12/10 02:55:08;;;;;;;15.07;2.13;;;;;;;9.78;100.00;99589.03;5094636;28;20032;-66
2020/12/10 02:57:34;;;;;;;9.20;1.23;;;;;;;9.78;100.00;99591.75;5094405;28;20051;-64
2020/12/10 03:00:00;;;;;;;15.90;2.00;;;;;;;9.80;100.00;99597.75;5094916;28;20036;-67
2020/12/10 03:02:26;;;;;;;12.02;1.58;;;;;;;9.79;100.00;99590.66;5093203;28;20541;-64
2020/12/10 03:04:51;;;;;;;9.00;1.05;;;;;;;9.81;100.00;99601.31;5094358;28;20032;-65
2020/12/10 03:07:17;;;;;;;11.15;1.48;;;;;;;9.81;100.00;99595.84;5094135;28;20127;-67
2020/12/10 03:09:43;;;;;;;13.65;1.63;;;;;;;9.83;100.00;99596.41;5094393;28;20036;-65
2020/12/10 03:12:09;;;;;;;12.50;1.95;;;;;;;9.84;100.00;99601.59;5094120;28;20176;-65
2020/12/10 03:14:35;;;;;;;10.10;1.38;;;;;;;9.83;100.00;99599.94;5094247;28;20036;-66
2020/12/10 03:17:01;;;;;;;11.20;1.73;;;;;;;9.84;100.00;99601.59;5094005;28;20402;-65
2020/12/10 03:19:27;;;;;;;12.20;1.75;;;;;;;9.84;100.00;99601.59;5094014;28;20047;-66
2020/12/10 03:21:52;;;;;;;12.95;1.30;;;;;;;9.85;100.00;99597.75;5094080;28;20064;-65
2020/12/10 03:24:18;;;;;;;8.95;1.85;;;;;;;9.86;100.00;99596.69;5094062;28;20408;-67
2020/12/10 03:26:43;;;;;;;11.70;1.95;;;;;;;9.87;100.00;99603.78;5093987;28;20028;-65
2020/12/10 03:29:09;;;;;;;12.30;1.27;;;;;;;9.86;100.00;99599.41;5093856;28;20047;-66
2020/12/10 03:31:36;;;;;;;13.70;0.90;;;;;;;9.88;100.00;99601.84;5093776;28;20119;-64
2020/12/10 03:34:02;;;;;;;6.18;0.88;;;;;;;9.87;100.00;99606.50;5093698;28;20119;-64
2020/12/10 03:36:47;;;;;;;11.02;1.63;;;;;;;9.87;100.00;99609.22;5093686;28;20089;-66
2020/12/10 03:39:13;;;;;;;6.72;1.10;;;;;;;9.87;100.00;99611.94;5093762;28;20028;-68
2020/12/10 03:41:39;;;;;;;7.60;1.30;;;;;;;9.88;100.00;99619.03;5093793;28;20370;-66
2020/12/10 03:44:04;;;;;;;12.00;1.40;;;;;;;9.89;100.00;99608.94;5093618;28;20036;-66
2020/12/10 03:46:30;;;;;;;12.15;1.50;;;;;;;9.89;100.00;99614.41;5093490;28;20055;-66
2020/12/10 03:48:56;;;;;;;7.15;1.85;;;;;;;9.90;100.00;99616.91;5093566;28;20038;-66
2020/12/10 03:51:21;;;;;;;14.82;1.35;;;;;;;9.92;100.00;99613.91;5093503;28;20063;-67
2020/12/10 03:53:47;;;;;;;7.68;1.20;;;;;;;9.91;100.00;99615.81;5093345;28;20046;-66
2020/12/10 03:56:12;;;;;;;7.80;1.33;;;;;;;9.92;100.00;99611.16;5093442;28;20119;-66
2020/12/10 03:58:38;;;;;;;12.48;1.17;;;;;;;9.92;100.00;99619.34;5093218;28;20043;-67
2020/12/10 04:01:03;;;;;;;7.82;1.10;;;;;;;9.93;100.00;99621.00;5093414;28;20035;-65
2020/12/10 04:03:29;;;;;;;8.63;1.08;;;;;;;9.92;100.00;99620.16;5093110;28;20055;-65
2020/12/10 04:05:54;;;;;;;11.68;0.93;;;;;;;9.92;100.00;99620.16;5093193;28;20036;-68
2020/12/10 04:08:20;;;;;;;9.85;1.10;;;;;;;9.92;100.00;99625.63;5092950;28;20048;-68
2020/12/10 04:10:46;;;;;;;8.32;1.10;;;;;;;9.91;100.00;99626.72;5093090;28;20048;-64
2020/12/10 04:13:11;;;;;;;7.43;0.93;;;;;;;9.92;100.00;99620.16;5092988;28;20085;-65
2020/12/10 04:15:37;;;;;;;9.77;1.20;;;;;;;9.89;100.00;99615.25;5093187;28;20119;-66
2020/12/10 04:18:02;;;;;;;9.90;1.08;;;;;;;9.90;100.00;99626.97;5093027;28;20481;-65
2020/12/10 04:20:28;;;;;;;7.95;1.13;;;;;;;9.88;100.00;99624.50;5092954;28;20489;-65
2020/12/10 04:22:53;;;;;;;8.18;1.20;;;;;;;9.87;100.00;99622.84;5092889;28;20251;-65
2020/12/10 04:25:19;;;;;;;6.18;1.10;;;;;;;9.87;100.00;99628.31;5092872;28;20043;-65
2020/12/10 04:27:45;;;;;;;6.53;0.70;;;;;;;9.86;100.00;99631.31;5092589;28;20032;-65
2020/12/10 04:30:10;;;;;;;6.28;1.67;;;;;;;9.86;100.00;99634.03;5092725;28;20039;-66
2020/12/10 04:32:36;;;;;;;4.22;0.80;;;;;;;9.84;100.00;99638.94;5092755;28;20046;-67
2020/12/10 04:35:02;;;;;;;5.90;0.63;;;;;;;9.83;100.00;99642.75;5092603;28;20051;-65
2020/12/10 04:37:28;;;;;;;8.73;0.73;;;;;;;9.83;100.00;99653.66;5092850;28;20039;-65
2020/12/10 04:39:53;;;;;;;3.40;1.10;;;;;;;9.84;100.00;99660.75;5092573;28;20028;-67
2020/12/10 04:42:19;;;;;;;4.10;0.57;;;;;;;9.82;100.00;99658.31;5092334;28;20059;-64
2020/12/10 04:44:46;;;;;;;1.58;0.57;;;;;;;9.84;100.00;99661.56;5092392;28;20394;-67
2020/12/10 04:47:12;;;;;;;6.80;0.70;;;;;;;9.85;100.00;99667.84;5092181;28;20036;-65
2020/12/10 04:49:39;;;;;;;5.40;0.77;;;;;;;9.84;100.00;99661.56;5092659;28;20031;-63
2020/12/10 04:52:07;;;;;;;2.80;0.60;;;;;;;9.85;100.00;99663.22;5092347;28;20028;-65
2020/12/10 04:54:33;;;;;;;3.25;0.60;;;;;;;9.83;100.00;99662.66;5092308;28;20044;-65
2020/12/10 04:57:01;;;;;;;6.40;1.15;;;;;;;9.82;100.00;99663.75;5091660;28;20048;-66
2020/12/10 04:59:26;;;;;;;3.28;0.60;;;;;;;9.81;100.00;99667.56;5092054;28;20042;-65
2020/12/10 05:01:55;;;;;;;5.68;0.70;;;;;;;9.80;100.00;99674.09;5092311;28;20047;-65
2020/12/10 05:04:22;;;;;;;4.05;0.88;;;;;;;9.78;100.00;99673.56;5092124;28;20043;-67
2020/12/10 05:06:51;;;;;;;6.68;0.80;;;;;;;9.75;100.00;99679.53;5092039;28;20036;-66
2020/12/10 05:09:17;;;;;;;5.85;0.90;;;;;;;9.72;100.00;99679.22;5092125;28;20071;-67
2020/12/10 05:11:44;;;;;;;6.22;1.60;;;;;;;9.69;100.00;99688.75;5091946;28;20155;-66
2020/12/10 05:14:09;;;;;;;6.13;0.95;;;;;;;9.65;100.00;99680.31;5090545;28;20444;-66
2020/12/10 05:16:35;;;;;;;4.88;1.17;;;;;;;9.62;100.00;99688.19;5091858;28;20036;-67
2020/12/10 05:19:20;;;;;;;4.95;1.30;;;;;;;9.59;100.00;99696.91;5090592;28;20079;-65
2020/12/10 05:22:05;;;;;;;4.57;0.95;;;;;;;9.55;100.00;99703.97;5091823;28;20077;-67
2020/12/10 05:24:31;;;;;;;4.18;1.10;;;;;;;9.54;100.00;99699.56;5091853;28;20032;-65
2020/12/10 05:27:18;;;;;;;8.40;1.10;;;;;;;9.53;100.00;99706.13;5091490;28;20035;-65
2020/12/10 05:29:44;;;;;;;6.75;0.90;;;;;;;9.54;100.00;99710.47;5091607;28;20113;-66
2020/12/10 05:32:39;;;;;;;6.70;1.10;;;;;;;9.57;100.00;99715.44;5091579;28;20067;-67
2020/12/10 05:35:23;;;;;;;5.75;0.68;;;;;;;9.58;100.00;99715.16;5091514;28;20040;-66
2020/12/10 05:37:53;;;;;;;8.50;1.33;;;;;;;9.59;100.00;99718.72;5091528;28;20028;-64
2020/12/10 05:40:20;;;;;;;6.13;1.30;;;;;;;9.61;100.00;99722.00;5091631;28;20443;-66
2020/12/10 05:42:50;;;;;;;7.28;1.15;;;;;;;9.61;100.00;99722.00;5091426;28;20437;-66
2020/12/10 05:45:20;;;;;;;6.80;1.10;;;;;;;9.62;100.00;99723.63;5091549;28;20054;-67
2020/12/10 05:47:49;;;;;;;6.75;1.42;;;;;;;9.63;100.00;99731.53;5091287;28;20109;-65
2020/12/10 05:50:16;;;;;;;10.27;2.38;;;;;;;9.63;100.00;99741.63;5091341;28;20031;-64
2020/12/10 05:52:54;;;;;;;10.02;1.00;;;;;;;9.64;100.00;99749.53;5091285;28;20488;-66
2020/12/10 05:55:20;;;;;;;11.15;1.20;;;;;;;9.65;100.00;99751.19;5091418;28;20474;-65
2020/12/10 05:57:46;;;;;;;10.38;1.67;;;;;;;9.67;100.00;99754.47;5091600;28;20115;-65
2020/12/10 06:00:11;;;;;;;9.60;1.73;;;;;;;9.70;100.00;99752.28;5091322;28;20036;-66
2020/12/10 06:02:40;;;;;;;12.07;1.88;;;;;;;9.69;100.00;99762.38;5091167;28;20393;-66
2020/12/10 06:05:06;;;;;;;6.53;1.50;;;;;;;9.70;100.00;99763.19;5091267;28;20038;-64
2020/12/10 06:07:31;;;;;;;7.95;2.50;;;;;;;9.71;100.00;99757.47;5091019;28;20044;-66
2020/12/10 06:09:58;;;;;;;10.82;1.70;;;;;;;9.72;100.00;99766.47;5095090;28;20039;-65
2020/12/10 06:12:25;;;;;;;7.85;1.50;;;;;;;9.72;100.00;99770.06;5095303;28;20038;-65
2020/12/10 06:14:56;;;;;;;7.10;1.40;;;;;;;9.73;100.00;99763.50;5095494;28;20077;-66
2020/12/10 06:17:21;;;;;;;6.45;1.50;;;;;;;9.72;100.00;99761.88;5095297;28;20032;-65
2020/12/10 06:19:48;;;;;;;10.68;1.55;;;;;;;9.74;100.00;99770.63;5095343;28;20400;-65
2020/12/10 06:22:29;;;;;;;12.13;2.75;;;;;;;9.75;100.00;99777.69;5095113;28;20059;-66
2020/12/10 06:24:57;;;;;;;8.82;2.05;;;;;;;9.76;100.00;99784.78;5095344;28;20088;-64
2020/12/10 06:27:27;;;;;;;7.05;1.88;;;;;;;9.77;100.00;99785.63;5094862;28;20448;-68
2020/12/10 06:30:17;;;;;;;14.18;2.50;;;;;;;9.79;100.00;99797.91;5095032;28;20036;-65
2020/12/10 06:32:46;;;;;;;13.05;3.15;;;;;;;9.81;100.00;99798.47;5094953;28;20062;-65
2020/12/10 06:35:28;;;;;;;8.20;2.92;;;;;;;9.82;100.00;99807.47;5094422;28;20063;-66
2020/12/10 06:37:54;;;;;;;12.05;3.45;;;;;;;9.85;100.00;99815.09;5094700;28;20070;-64
2020/12/10 06:40:36;;;;;;;10.15;2.17;;;;;;;9.85;100.00;99821.38;5094810;28;20072;-65
2020/12/10 06:43:03;;;;;;;16.40;2.38;;;;;;;9.87;100.00;99829.31;5095169;28;20127;-64
2020/12/10 06:45:31;;;;;;;14.40;2.35;;;;;;;9.87;100.00;99837.47;5094675;28;20053;-65
2020/12/10 06:48:04;;;;;;;15.98;3.80;;;;;;;9.86;100.00;99844.84;5094601;28;20107;-64
2020/12/10 06:50:32;;;;;;;16.80;1.92;;;;;;;9.86;100.00;99850.28;5094798;28;20123;-66
2020/12/10 06:53:11;;;;;;;12.95;2.28;;;;;;;9.86;100.00;99863.94;5094499;28;20482;-63
2020/12/10 06:55:55;;;;;;;10.98;2.40;;;;;;;9.87;100.00;99868.31;5094474;28;20494;-64
2020/12/10 06:58:21;;;;;;;13.80;2.63;;;;;;;9.86;100.00;99869.38;5094567;28;20389;-65
2020/12/10 07:00:49;;;;;;;15.93;2.83;;;;;;;9.87;100.00;99873.75;5094498;28;20108;-65
2020/12/10 07:03:22;;;;;;;19.75;2.50;;;;;;;9.88;100.00;99880.84;5094698;28;20032;-63
2020/12/10 07:05:48;;;;;;;9.43;2.30;;;;;;;9.88;100.00;99889.03;5094577;28;20394;-66
2020/12/10 07:08:16;;;;;;;15.70;2.95;;;;;;;9.88;100.00;99896.41;5094191;28;20289;-65
2020/12/10 07:10:45;;;;;;;11.98;2.40;;;;;;;9.88;100.00;99894.50;5094328;28;20039;-64
2020/12/10 07:13:13;;;;;;;8.82;2.45;;;;;;;9.87;100.00;99895.56;5094152;28;20032;-64
2020/12/10 07:15:39;;;;;;;14.10;2.20;;;;;;;9.85;100.00;99889.56;5094202;28;20024;-64
2020/12/10 07:18:05;;;;;;;11.48;2.17;;;;;;;9.88;100.00;99897.22;5094074;28;20051;-65
2020/12/10 07:20:33;;;;;;;8.65;1.83;;;;;;;9.88;100.00;99896.41;5093763;28;20115;-65
2020/12/10 07:22:59;;;;;;;8.80;2.40;;;;;;;9.89;100.00;99909.81;5094105;28;20036;-64
2020/12/10 07:25:25;;;;;;;10.27;2.33;;;;;;;9.89;100.00;99909.81;5094254;28;20063;-64
2020/12/10 07:27:51;;;;;;;9.27;2.30;;;;;;;9.89;100.00;99906.22;5093834;28;20112;-64
2020/12/10 07:30:19;;;;;;;12.27;2.80;;;;;;;9.90;100.00;99911.44;5093966;28;20050;-66
2020/12/10 07:32:45;;;;;;;7.22;2.65;;;;;;;9.94;100.00;99918.00;5093782;28;20039;-64
2020/12/10 07:35:12;;;;;;;8.65;2.28;;;;;;;9.96;100.00;99920.47;5093723;28;20125;-66
2020/12/10 07:37:39;;;;;;;9.32;2.10;;;;;;;9.97;100.00;99922.94;5092784;28;20132;-67
2020/12/10 07:40:15;;;;;;;9.85;2.00;;;;;;;9.98;100.00;99930.03;5093785;28;20103;-65
2020/12/10 07:42:41;;;;;;;9.15;2.22;;;;;;;9.99;100.00;99930.88;5093652;28;20500;-66
2020/12/10 07:45:18;;;;;;;11.98;2.22;;;;;;;10.01;100.00;99938.78;5093629;28;20044;-64
2020/12/10 07:47:54;;;;;;;9.15;2.13;;;;;;;10.02;100.00;99951.34;5093584;28;20036;-65
2020/12/10 07:50:23;;;;;;;15.73;2.13;;;;;;;10.02;100.00;99952.16;5093539;28;20036;-66
2020/12/10 07:52:51;;;;;;;13.02;1.90;;;;;;;10.03;100.00;99950.25;5092105;28;20446;-66
2020/12/10 07:55:21;;;;;;;15.80;2.40;;;;;;;10.03;100.00;99958.44;5093578;28;20044;-65
2020/12/10 07:57:57;;;;;;;13.43;2.40;;;;;;;10.04;100.00;99955.44;5093491;28;20059;-64
2020/12/10 08:00:26;;;;;;;7.60;1.70;;;;;;;10.06;100.00;99957.91;5093339;28;20389;-65
2020/12/10 08:02:57;;;;;;;8.57;1.83;;;;;;;10.05;100.00;99959.00;5093163;28;20071;-66
2020/12/10 08:05:24;;;;;;;16.55;3.72;;;;;;;10.03;100.00;99963.91;5093329;28;20036;-64
2020/12/10 08:07:51;;;;;;;8.65;1.60;;;;;;;10.01;100.00;99971.53;5093076;28;20378;-65
2020/12/10 08:10:25;;;;;;;12.02;2.38;;;;;;;9.96;100.00;99978.59;5093588;28;20105;-65
2020/12/10 08:13:11;;;;;;;12.93;2.17;;;;;;;9.90;100.00;99976.91;5093246;28;20757;-65
2020/12/10 08:15:38;;;;;;;12.38;2.15;;;;;;;9.87;100.00;99988.31;5092652;28;20063;-67
2020/12/10 08:18:05;;;;;;;11.75;2.05;;;;;;;9.83;100.00;99997.28;5092979;28;20035;-65
2020/12/10 08:20:43;;;;;;;9.70;2.65;;;;;;;9.78;100.00;99995.31;5093006;28;20394;-66
2020/12/10 08:23:09;;;;;;;10.35;2.15;;;;;;;9.78;100.00;100006.22;5092875;28;20073;-64
2020/12/10 08:25:34;;;;;;;10.82;2.67;;;;;;;9.78;100.00;100008.97;5092740;28;20059;-64
2020/12/10 08:28:03;;;;;;;10.82;1.95;;;;;;;9.80;100.00;99998.59;5092727;28;20032;-65
2020/12/10 08:30:29;;;;;;;7.03;2.08;;;;;;;9.81;100.00;100000.25;5092239;28;20032;-66
2020/12/10 08:33:02;;;;;;;9.50;2.28;;;;;;;9.83;100.00;100009.00;5092463;28;20067;-64
2020/12/10 08:35:39;;;;;;;13.15;2.53;;;;;;;9.85;100.00;100012.28;5092271;28;20649;-66
2020/12/10 08:38:05;;;;;;;8.02;1.52;;;;;;;9.88;100.00;100010.94;5092486;28;20060;-64
2020/12/10 08:40:30;;;;;;;8.15;1.50;;;;;;;9.90;100.00;100017.00;5092644;28;20074;-66
2020/12/10 08:43:10;;;;;;;9.18;1.90;;;;;;;9.93;100.00;100019.19;5092515;28;20036;-65
2020/12/10 08:45:44;;;;;;;7.85;1.98;;;;;;;9.95;100.00;100028.75;5092901;28;20157;-64
2020/12/10 08:48:11;;;;;;;9.97;2.47;;;;;;;9.96;100.00;100029.59;5091626;28;20046;-64
2020/12/10 08:50:49;;;;;;;13.75;3.53;;;;;;;9.98;100.00;100024.69;5090677;28;20459;-64
2020/12/10 08:53:14;;;;;;;11.95;1.95;;;;;;;10.00;100.00;100035.34;5092183;28;20033;-67
2020/12/10 08:55:44;;;;;;;7.13;1.88;;;;;;;10.01;100.00;100043.25;5091017;28;20078;-63
2020/12/10 08:58:23;;;;;;;10.88;2.03;;;;;;;10.03;100.00;100052.00;5091366;28;20051;-64
2020/12/10 09:00:50;;;;;;;10.93;1.83;;;;;;;10.05;100.00;100049.03;5079000;28;20130;-64
2020/12/10 09:03:17;;;;;;;11.25;2.08;;;;;;;10.05;100.00;100052.56;5092110;28;20482;-64
2020/12/10 09:05:42;;;;;;;9.23;1.42;;;;;;;10.07;100.00;100066.00;5091497;28;20500;-63
2020/12/10 09:08:09;;;;;;;8.73;1.40;;;;;;;10.09;100.00;100066.56;5091694;28;20036;-62
2020/12/10 09:10:35;;;;;;;11.52;2.33;;;;;;;10.11;100.00;100069.84;5091225;28;20072;-65
2020/12/10 09:13:01;;;;;;;16.60;2.42;;;;;;;10.13;100.00;100075.84;5092376;28;20379;-62
2020/12/10 09:15:28;;;;;;;8.02;1.98;;;;;;;10.15;100.00;100087.34;5103539;28;20043;-63
2020/12/10 09:17:53;;;;;;;10.02;2.17;;;;;;;10.17;100.00;100090.63;5091311;28;20492;-64
2020/12/10 09:20:20;;;;;;;6.00;2.22;;;;;;;10.21;100.00;100089.06;5091129;28;20024;-64
2020/12/10 09:22:45;;;;;;;6.32;2.08;;;;;;;10.24;100.00;100094.84;5091672;28;20036;-63
2020/12/10 09:25:11;;;;;;;9.43;1.48;;;;;;;10.25;100.00;100090.22;5091548;28;20035;-63
2020/12/10 09:27:37;;;;;;;10.15;1.63;;;;;;;10.27;100.00;100101.69;5090264;28;20287;-63
2020/12/10 09:30:06;;;;;;;4.25;1.40;;;;;;;10.29;100.00;100098.69;5091259;28;20042;-64
2020/12/10 09:32:34;;;;;;;10.63;1.85;;;;;;;10.30;100.00;100095.69;5091608;28;20035;-64
2020/12/10 09:35:06;;;;;;;7.47;1.50;;;;;;;10.32;100.00;100103.63;5091195;28;20600;-65
2020/12/10 09:37:33;;;;;;;8.75;2.00;;;;;;;10.33;100.00;100105.28;5090389;28;20451;-62
2020/12/10 09:39:59;;;;;;;10.25;1.98;;;;;;;10.31;100.00;100113.72;5091304;28;20035;-63
2020/12/10 09:42:24;;;;;;;4.63;1.73;;;;;;;10.33;100.00;100111.56;5090907;28;20035;-63
2020/12/10 09:44:50;;;;;;;7.03;2.38;;;;;;;10.34;100.00;100123.31;5091278;28;20105;-63
2020/12/10 09:47:16;;;;;;;11.65;1.83;;;;;;;10.35;100.00;100119.47;5090945;28;20079;-63
2020/12/10 09:49:41;;;;;;;9.07;1.92;;;;;;;10.38;100.00;100114.31;5091029;28;20084;-62
2020/12/10 09:52:07;;;;;;;9.77;2.42;;;;;;;10.42;100.00;100126.41;5091148;28;20097;-63
2020/12/10 09:55:02;;;;;;;6.05;1.92;;;;;;;10.45;100.00;100123.16;5091082;28;20032;-63
2020/12/10 09:59:54;;;;;;;;;;;;;;;10.48;100.00;100130.81;5091895;28;20097;-63
2020/12/10 10:02:19;;;;;;;11.13;2.15;;;;;;;10.49;100.00;100143.38;5089942;28;20393;-62
2020/12/10 10:04:45;;;;;;;8.85;2.25;;;;;;;10.54;100.00;100154.34;5091266;28;20044;-63
2020/12/10 10:07:11;;;;;;;6.80;2.65;;;;;;;10.57;100.00;100155.72;5090919;28;20036;-62
2020/12/10 10:09:37;;;;;;;7.60;1.42;;;;;;;10.58;100.00;100157.38;5090758;28;20134;-62
2020/12/10 10:12:05;;;;;;;5.50;1.70;;;;;;;10.55;100.00;100158.72;5090617;28;20036;-62
2020/12/10 10:14:31;;;;;;;9.88;2.40;;;;;;;10.52;100.00;100167.44;5090771;28;20036;-63
2020/12/10 10:16:57;;;;;;;7.13;1.92;;;;;;;10.53;100.00;100166.34;5090260;28;20035;-63
2020/12/10 10:19:23;;;;;;;2.03;0.98;;;;;;;10.57;100.00;100172.09;5090926;28;20036;-62
2020/12/10 10:21:49;;;;;;;2.38;0.90;;;;;;;10.61;100.00;100172.44;5090087;28;20032;-64
2020/12/10 10:24:14;;;;;;;3.15;0.90;;;;;;;10.61;100.00;100177.91;5090644;28;20036;-63
2020/12/10 10:26:40;;;;;;;2.05;0.70;;;;;;;10.63;100.00;100175.72;5090401;28;20085;-64
2020/12/10 10:29:08;;;;;;;4.18;0.60;;;;;;;10.67;100.00;100185.06;5090534;28;20122;-62
2020/12/10 10:31:34;;;;;;;2.42;0.70;;;;;;;10.71;100.00;100177.97;5090487;28;20074;-63
2020/12/10 10:34:00;;;;;;;4.75;1.10;;;;;;;10.76;100.00;100180.75;5090451;28;20115;-64
2020/12/10 10:36:25;;;;;;;1.90;0.57;;;;;;;10.85;100.00;100173.75;5090561;28;20147;-65
2020/12/10 10:38:51;;;;;;;3.83;0.60;;;;;;;10.94;100.00;100183.13;5090103;28;20127;-65
2020/12/10 10:41:17;;;;;;;2.60;0.50;;;;;;;11.02;100.00;100174.44;5090674;28;20398;-64
2020/12/10 10:43:42;;;;;;;3.40;0.70;;;;;;;11.05;100.00;100173.91;5089967;28;20133;-64
2020/12/10 10:46:08;;;;;;;3.90;1.00;;;;;;;11.05;100.00;100179.38;5090214;28;20036;-64
2020/12/10 10:48:34;;;;;;;4.75;1.20;;;;;;;11.01;100.00;100183.72;5090555;28;20512;-64
2020/12/10 10:50:59;;;;;;;4.78;0.93;;;;;;;11.05;100.00;100171.16;5090600;28;20032;-65
2020/12/10 10:53:25;;;;;;;4.70;0.90;;;;;;;11.07;100.00;100177.19;5090065;28;20096;-65
2020/12/10 10:55:51;;;;;;;5.00;0.98;;;;;;;11.07;100.00;100177.19;5094113;28;20404;-64
2020/12/10 10:58:17;;;;;;;6.95;0.82;;;;;;;11.06;100.00;100175.53;5094074;28;20039;-64
2020/12/10 11:00:46;;;;;;;5.70;1.30;;;;;;;11.09;100.00;100180.47;5094208;28;20043;-65
2020/12/10 11:03:12;;;;;;;1.23;0.68;;;;;;;11.06;100.00;100178.28;5090939;28;20499;-65
2020/12/10 11:05:38;;;;;;;3.15;1.17;;;;;;;11.10;100.00;100182.13;5093799;28;20147;-65
2020/12/10 11:08:03;;;;;;;4.97;0.93;;;;;;;11.12;100.00;100179.97;5093230;28;20481;-65
2020/12/10 11:10:29;;;;;;;4.32;0.63;;;;;;;11.14;100.00;100177.00;5094297;28;20063;-65
2020/12/10 11:12:54;;;;;;;0.60;0.30;;;;;;;11.16;100.00;100167.44;5093468;28;20035;-64
2020/12/10 11:15:20;;;;;;;2.97;0.63;;;;;;;11.18;100.00;100154.31;5093780;28;20043;-64
2020/12/10 11:17:45;;;;;;;2.95;1.02;;;;;;;11.22;100.00;100151.06;5093736;28;20505;-64
2020/12/10 11:20:11;;;;;;;2.22;1.08;;;;;;;11.24;100.00;100160.63;5094289;28;20036;-64
2020/12/10 11:22:38;;;;;;;2.05;0.60;;;;;;;11.18;100.00;100148.84;5093405;28;20472;-65
2020/12/10 11:25:05;;;;;;;1.08;0.50;;;;;;;11.15;100.00;100152.13;5094001;28;20036;-64
2020/12/10 11:27:31;;;;;;;2.47;0.47;;;;;;;11.13;100.00;100146.09;5093442;28;20040;-64
2020/12/10 11:30:00;;;;;;;1.95;0.70;;;;;;;11.13;100.00;100148.00;5092567;28;20532;-64